sensor_id;sensor_type;location;lat;lon;timestamp;P1;durP1;ratioP1;P2;durP2;ratioP2
9665;SDS011;4871;52.004;5.924;2023-11-19T00:00:00;7.00;;;6.00;;
9665;SDS011;4871;52.004;5.924;2023-11-19T00:01:00;7.00;;;6.00;;
9665;SDS011;4871;52.004;5.924;2023-11-19T00:02:00;7.00;;;6.00;;
9665;SDS011;4871;52.004;5.924;2023-11-19T00:03:00;7.00;;;6.00;;
9665;SDS011;4871;52.004;5.924;2023-11-19T00:04:00;7.00;;;6.00;;
9665;SDS011;4871;52.004;5.924;2023-11-19T00:05:00;7.00;;;6.00;;
9665;SDS011;4871;52.004;5.924;2023-11-19T00:06:00;7.00;;;6.00;;
9665;SDS011;4871;52.004;5.924;2023-11-19T00:07:03;7.00;;;6.00;;
9665;SDS011;4871;52.004;5.924;2023-11-19T00:08:00;7.00;;;6.00;;
9665;SDS011;4871;52.004;5.924;2023-11-19T00:09:00;7.00;;;6.00;;
9665;SDS011;4871;52.004;5.924;2023-11-19T00:10:14;7.00;;;6.00;;
9665;SDS011;4871;52.004;5.924;2023-11-19T00:11:01;7.00;;;6.00;;
9665;SDS011;4871;52.004;5.924;2023-11-19T00:12:00;7.00;;;6.00;;
9665;SDS011;4871;52.004;5.924;2023-11-19T00:13:00;7.00;;;6.00;;
9665;SDS011;4871;52.004;5.924;2023-11-19T00:14:00;7.00;;;6.00;;
9665;SDS011;4871;52.004;5.924;2023-11-19T00:15:00;7.00;;;6.00;;
9665;SDS011;4871;52.004;5.924;2023-11-19T00:16:00;7.00;;;6.00;;
9665;SDS011;4871;52.004;5.924;2023-11-19T00:17:00;7.00;;;6.00;;
9665;SDS011;4871;52.004;5.924;2023-11-19T00:18:04;7.00;;;6.00;;
9665;SDS011;4871;52.004;5.924;2023-11-19T00:19:00;7.00;;;6.00;;
9665;SDS011;4871;52.004;5.924;2023-11-19T00:20:00;7.00;;;6.00;;
9665;SDS011;4871;52.004;5.924;2023-11-19T00:21:00;7.00;;;6.00;;
9665;SDS011;4871;52.004;5.924;2023-11-19T00:22:02;7.00;;;6.00;;
9665;SDS011;4871;52.004;5.924;2023-11-19T00:23:02;7.00;;;6.00;;
9665;SDS011;4871;52.004;5.924;2023-11-19T00:24:00;7.00;;;6.00;;
9665;SDS011;4871;52.004;5.924;2023-11-19T00:25:00;7.00;;;6.00;;
9665;SDS011;4871;52.004;5.924;2023-11-19T00:26:00;6.70;;;5.20;;
9665;SDS011;4871;52.004;5.924;2023-11-19T00:27:00;6.70;;;5.20;;
9665;SDS011;4871;52.004;5.924;2023-11-19T00:28:00;6.70;;;5.20;;
9665;SDS011;4871;52.004;5.924;2023-11-19T00:29:00;6.70;;;5.20;;
9665;SDS011;4871;52.004;5.924;2023-11-19T00:30:00;6.70;;;5.20;;
9665;SDS011;4871;52.004;5.924;2023-11-19T00:31:00;6.70;;;5.20;;
9665;SDS011;4871;52.004;5.924;2023-11-19T00:32:00;6.70;;;5.20;;
9665;SDS011;4871;52.004;5.924;2023-11-19T00:33:00;6.70;;;5.20;;
9665;SDS011;4871;52.004;5.924;2023-11-19T00:34:01;6.70;;;5.20;;
9665;SDS011;4871;52.004;5.924;2023-11-19T00:35:00;6.70;;;5.20;;
9665;SDS011;4871;52.004;5.924;2023-11-19T00:36:00;6.70;;;5.20;;
9665;SDS011;4871;52.004;5.924;2023-11-19T00:37:00;6.70;;;5.20;;
9665;SDS011;4871;52.004;5.924;2023-11-19T00:38:00;6.70;;;5.20;;
9665;SDS011;4871;52.004;5.924;2023-11-19T00:39:00;6.70;;;5.20;;
9665;SDS011;4871;52.004;5.924;2023-11-19T00:40:00;6.70;;;5.20;;
9665;SDS011;4871;52.004;5.924;2023-11-19T00:41:00;6.70;;;5.20;;
9665;SDS011;4871;52.004;5.924;2023-11-19T00:42:00;6.70;;;5.20;;
9665;SDS011;4871;52.004;5.924;2023-11-19T00:43:00;6.70;;;5.20;;
9665;SDS011;4871;52.004;5.924;2023-11-19T00:44:00;6.70;;;5.20;;
9665;SDS011;4871;52.004;5.924;2023-11-19T00:45:01;6.70;;;5.20;;
9665;SDS011;4871;52.004;5.924;2023-11-19T00:46:00;6.70;;;5.20;;
9665;SDS011;4871;52.004;5.924;2023-11-19T00:47:00;6.70;;;5.20;;
9665;SDS011;4871;52.004;5.924;2023-11-19T00:48:00;6.70;;;5.20;;
9665;SDS011;4871;52.004;5.924;2023-11-19T00:49:01;6.70;;;5.20;;
9665;SDS011;4871;52.004;5.924;2023-11-19T00:50:00;6.70;;;5.20;;
9665;SDS011;4871;52.004;5.924;2023-11-19T00:51:00;6.70;;;5.20;;
9665;SDS011;4871;52.004;5.924;2023-11-19T00:52:00;6.70;;;5.20;;
9665;SDS011;4871;52.004;5.924;2023-11-19T00:53:00;6.70;;;5.20;;
9665;SDS011;4871;52.004;5.924;2023-11-19T00:54:00;6.70;;;5.20;;
9665;SDS011;4871;52.004;5.924;2023-11-19T00:55:00;6.70;;;5.20;;
9665;SDS011;4871;52.004;5.924;2023-11-19T00:56:00;8.00;;;4.90;;
9665;SDS011;4871;52.004;5.924;2023-11-19T00:57:01;8.00;;;4.90;;
9665;SDS011;4871;52.004;5.924;2023-11-19T00:58:00;8.00;;;4.90;;
9665;SDS011;4871;52.004;5.924;2023-11-19T00:59:00;8.00;;;4.90;;
9665;SDS011;4871;52.004;5.924;2023-11-19T01:00:00;8.00;;;4.90;;
9665;SDS011;4871;52.004;5.924;2023-11-19T01:01:00;8.00;;;4.90;;
9665;SDS011;4871;52.004;5.924;2023-11-19T01:02:03;8.00;;;4.90;;
9665;SDS011;4871;52.004;5.924;2023-11-19T01:03:00;8.00;;;4.90;;
9665;SDS011;4871;52.004;5.924;2023-11-19T01:04:00;8.00;;;4.90;;
9665;SDS011;4871;52.004;5.924;2023-11-19T01:05:00;8.00;;;4.90;;
9665;SDS011;4871;52.004;5.924;2023-11-19T01:06:02;8.00;;;4.90;;
9665;SDS011;4871;52.004;5.924;2023-11-19T01:07:01;8.00;;;4.90;;
9665;SDS011;4871;52.004;5.924;2023-11-19T01:08:00;8.00;;;4.90;;
9665;SDS011;4871;52.004;5.924;2023-11-19T01:09:00;8.00;;;4.90;;
9665;SDS011;4871;52.004;5.924;2023-11-19T01:10:00;8.00;;;4.90;;
9665;SDS011;4871;52.004;5.924;2023-11-19T01:11:00;8.00;;;4.90;;
9665;SDS011;4871;52.004;5.924;2023-11-19T01:12:00;8.00;;;4.90;;
9665;SDS011;4871;52.004;5.924;2023-11-19T01:13:00;8.00;;;4.90;;
9665;SDS011;4871;52.004;5.924;2023-11-19T01:14:00;8.00;;;4.90;;
9665;SDS011;4871;52.004;5.924;2023-11-19T01:15:01;8.00;;;4.90;;
9665;SDS011;4871;52.004;5.924;2023-11-19T01:16:02;8.00;;;4.90;;
9665;SDS011;4871;52.004;5.924;2023-11-19T01:17:00;8.00;;;4.90;;
9665;SDS011;4871;52.004;5.924;2023-11-19T01:18:02;8.00;;;4.90;;
9665;SDS011;4871;52.004;5.924;2023-11-19T01:19:04;8.00;;;4.90;;
9665;SDS011;4871;52.004;5.924;2023-11-19T01:20:00;8.00;;;4.90;;
9665;SDS011;4871;52.004;5.924;2023-11-19T01:21:00;8.00;;;4.90;;
9665;SDS011;4871;52.004;5.924;2023-11-19T01:22:00;8.00;;;4.90;;
9665;SDS011;4871;52.004;5.924;2023-11-19T01:23:00;8.00;;;4.90;;
9665;SDS011;4871;52.004;5.924;2023-11-19T01:24:00;8.00;;;4.90;;
9665;SDS011;4871;52.004;5.924;2023-11-19T01:25:00;8.00;;;4.90;;
9665;SDS011;4871;52.004;5.924;2023-11-19T01:26:00;8.50;;;4.00;;
9665;SDS011;4871;52.004;5.924;2023-11-19T01:27:00;8.50;;;4.00;;
9665;SDS011;4871;52.004;5.924;2023-11-19T01:28:02;8.50;;;4.00;;
9665;SDS011;4871;52.004;5.924;2023-11-19T01:29:01;8.50;;;4.00;;
9665;SDS011;4871;52.004;5.924;2023-11-19T01:30:02;8.50;;;4.00;;
9665;SDS011;4871;52.004;5.924;2023-11-19T01:31:00;8.50;;;4.00;;
9665;SDS011;4871;52.004;5.924;2023-11-19T01:32:00;8.50;;;4.00;;
9665;SDS011;4871;52.004;5.924;2023-11-19T01:33:00;8.50;;;4.00;;
9665;SDS011;4871;52.004;5.924;2023-11-19T01:34:00;8.50;;;4.00;;
9665;SDS011;4871;52.004;5.924;2023-11-19T01:35:01;8.50;;;4.00;;
9665;SDS011;4871;52.004;5.924;2023-11-19T01:36:00;8.50;;;4.00;;
9665;SDS011;4871;52.004;5.924;2023-11-19T01:37:00;8.50;;;4.00;;
9665;SDS011;4871;52.004;5.924;2023-11-19T01:38:00;8.50;;;4.00;;
9665;SDS011;4871;52.004;5.924;2023-11-19T01:39:00;8.50;;;4.00;;
9665;SDS011;4871;52.004;5.924;2023-11-19T01:40:00;8.50;;;4.00;;
9665;SDS011;4871;52.004;5.924;2023-11-19T01:41:01;8.50;;;4.00;;
9665;SDS011;4871;52.004;5.924;2023-11-19T01:42:00;8.50;;;4.00;;
9665;SDS011;4871;52.004;5.924;2023-11-19T01:43:00;8.50;;;4.00;;
9665;SDS011;4871;52.004;5.924;2023-11-19T01:44:00;8.50;;;4.00;;
9665;SDS011;4871;52.004;5.924;2023-11-19T01:45:00;8.50;;;4.00;;
9665;SDS011;4871;52.004;5.924;2023-11-19T01:46:00;8.50;;;4.00;;
9665;SDS011;4871;52.004;5.924;2023-11-19T01:47:00;8.50;;;4.00;;
9665;SDS011;4871;52.004;5.924;2023-11-19T01:48:00;8.50;;;4.00;;
9665;SDS011;4871;52.004;5.924;2023-11-19T01:49:00;8.50;;;4.00;;
9665;SDS011;4871;52.004;5.924;2023-11-19T01:50:00;8.50;;;4.00;;
9665;SDS011;4871;52.004;5.924;2023-11-19T01:51:00;8.50;;;4.00;;
9665;SDS011;4871;52.004;5.924;2023-11-19T01:52:00;8.50;;;4.00;;
9665;SDS011;4871;52.004;5.924;2023-11-19T01:53:00;8.50;;;4.00;;
9665;SDS011;4871;52.004;5.924;2023-11-19T01:54:00;8.50;;;4.00;;
9665;SDS011;4871;52.004;5.924;2023-11-19T01:55:00;8.50;;;4.00;;
9665;SDS011;4871;52.004;5.924;2023-11-19T01:56:00;13.80;;;4.00;;
9665;SDS011;4871;52.004;5.924;2023-11-19T01:57:01;13.80;;;4.00;;
9665;SDS011;4871;52.004;5.924;2023-11-19T01:58:00;13.80;;;4.00;;
9665;SDS011;4871;52.004;5.924;2023-11-19T01:59:00;13.80;;;4.00;;
9665;SDS011;4871;52.004;5.924;2023-11-19T02:00:00;13.80;;;4.00;;
9665;SDS011;4871;52.004;5.924;2023-11-19T02:01:00;13.80;;;4.00;;
9665;SDS011;4871;52.004;5.924;2023-11-19T02:02:00;13.80;;;4.00;;
9665;SDS011;4871;52.004;5.924;2023-11-19T02:03:00;13.80;;;4.00;;
9665;SDS011;4871;52.004;5.924;2023-11-19T02:04:00;13.80;;;4.00;;
9665;SDS011;4871;52.004;5.924;2023-11-19T02:05:00;13.80;;;4.00;;
9665;SDS011;4871;52.004;5.924;2023-11-19T02:06:00;13.80;;;4.00;;
9665;SDS011;4871;52.004;5.924;2023-11-19T02:07:00;13.80;;;4.00;;
9665;SDS011;4871;52.004;5.924;2023-11-19T02:08:00;13.80;;;4.00;;
9665;SDS011;4871;52.004;5.924;2023-11-19T02:09:00;13.80;;;4.00;;
9665;SDS011;4871;52.004;5.924;2023-11-19T02:10:03;13.80;;;4.00;;
9665;SDS011;4871;52.004;5.924;2023-11-19T02:11:00;13.80;;;4.00;;
9665;SDS011;4871;52.004;5.924;2023-11-19T02:12:00;13.80;;;4.00;;
9665;SDS011;4871;52.004;5.924;2023-11-19T02:13:00;13.80;;;4.00;;
9665;SDS011;4871;52.004;5.924;2023-11-19T02:14:00;13.80;;;4.00;;
9665;SDS011;4871;52.004;5.924;2023-11-19T02:15:00;13.80;;;4.00;;
9665;SDS011;4871;52.004;5.924;2023-11-19T02:16:02;13.80;;;4.00;;
9665;SDS011;4871;52.004;5.924;2023-11-19T02:17:00;13.80;;;4.00;;
9665;SDS011;4871;52.004;5.924;2023-11-19T02:19:00;13.80;;;4.00;;
9665;SDS011;4871;52.004;5.924;2023-11-19T02:20:00;13.80;;;4.00;;
9665;SDS011;4871;52.004;5.924;2023-11-19T02:21:00;13.80;;;4.00;;
9665;SDS011;4871;52.004;5.924;2023-11-19T02:22:00;13.80;;;4.00;;
9665;SDS011;4871;52.004;5.924;2023-11-19T02:23:00;13.80;;;4.00;;
9665;SDS011;4871;52.004;5.924;2023-11-19T02:24:00;13.80;;;4.00;;
9665;SDS011;4871;52.004;5.924;2023-11-19T02:25:04;13.80;;;4.00;;
9665;SDS011;4871;52.004;5.924;2023-11-19T02:26:02;12.80;;;4.90;;
9665;SDS011;4871;52.004;5.924;2023-11-19T02:27:02;12.80;;;4.90;;
9665;SDS011;4871;52.004;5.924;2023-11-19T02:28:00;12.80;;;4.90;;
9665;SDS011;4871;52.004;5.924;2023-11-19T02:29:00;12.80;;;4.90;;
9665;SDS011;4871;52.004;5.924;2023-11-19T02:30:00;12.80;;;4.90;;
9665;SDS011;4871;52.004;5.924;2023-11-19T02:31:00;12.80;;;4.90;;
9665;SDS011;4871;52.004;5.924;2023-11-19T02:32:01;12.80;;;4.90;;
9665;SDS011;4871;52.004;5.924;2023-11-19T02:33:05;12.80;;;4.90;;
9665;SDS011;4871;52.004;5.924;2023-11-19T02:34:02;12.80;;;4.90;;
9665;SDS011;4871;52.004;5.924;2023-11-19T02:35:00;12.80;;;4.90;;
9665;SDS011;4871;52.004;5.924;2023-11-19T02:36:00;12.80;;;4.90;;
9665;SDS011;4871;52.004;5.924;2023-11-19T02:37:00;12.80;;;4.90;;
9665;SDS011;4871;52.004;5.924;2023-11-19T02:38:01;12.80;;;4.90;;
9665;SDS011;4871;52.004;5.924;2023-11-19T02:39:00;12.80;;;4.90;;
9665;SDS011;4871;52.004;5.924;2023-11-19T02:40:03;12.80;;;4.90;;
9665;SDS011;4871;52.004;5.924;2023-11-19T02:41:02;12.80;;;4.90;;
9665;SDS011;4871;52.004;5.924;2023-11-19T02:42:00;12.80;;;4.90;;
9665;SDS011;4871;52.004;5.924;2023-11-19T02:43:00;12.80;;;4.90;;
9665;SDS011;4871;52.004;5.924;2023-11-19T02:44:01;12.80;;;4.90;;
9665;SDS011;4871;52.004;5.924;2023-11-19T02:45:00;12.80;;;4.90;;
9665;SDS011;4871;52.004;5.924;2023-11-19T02:46:01;12.80;;;4.90;;
9665;SDS011;4871;52.004;5.924;2023-11-19T02:47:00;12.80;;;4.90;;
9665;SDS011;4871;52.004;5.924;2023-11-19T02:48:01;12.80;;;4.90;;
9665;SDS011;4871;52.004;5.924;2023-11-19T02:49:00;12.80;;;4.90;;
9665;SDS011;4871;52.004;5.924;2023-11-19T02:50:01;12.80;;;4.90;;
9665;SDS011;4871;52.004;5.924;2023-11-19T02:51:00;12.80;;;4.90;;
9665;SDS011;4871;52.004;5.924;2023-11-19T02:52:00;12.80;;;4.90;;
9665;SDS011;4871;52.004;5.924;2023-11-19T02:53:01;12.80;;;4.90;;
9665;SDS011;4871;52.004;5.924;2023-11-19T02:54:00;12.80;;;4.90;;
9665;SDS011;4871;52.004;5.924;2023-11-19T02:55:00;12.80;;;4.90;;
9665;SDS011;4871;52.004;5.924;2023-11-19T02:56:06;14.30;;;3.90;;
9665;SDS011;4871;52.004;5.924;2023-11-19T02:57:01;14.30;;;3.90;;
9665;SDS011;4871;52.004;5.924;2023-11-19T02:58:00;14.30;;;3.90;;
9665;SDS011;4871;52.004;5.924;2023-11-19T02:59:07;14.30;;;3.90;;
9665;SDS011;4871;52.004;5.924;2023-11-19T03:00:00;14.30;;;3.90;;
9665;SDS011;4871;52.004;5.924;2023-11-19T03:01:10;14.30;;;3.90;;
9665;SDS011;4871;52.004;5.924;2023-11-19T03:02:00;14.30;;;3.90;;
9665;SDS011;4871;52.004;5.924;2023-11-19T03:03:05;14.30;;;3.90;;
9665;SDS011;4871;52.004;5.924;2023-11-19T03:04:01;14.30;;;3.90;;
9665;SDS011;4871;52.004;5.924;2023-11-19T03:05:00;14.30;;;3.90;;
9665;SDS011;4871;52.004;5.924;2023-11-19T03:06:04;14.30;;;3.90;;
9665;SDS011;4871;52.004;5.924;2023-11-19T03:07:00;14.30;;;3.90;;
9665;SDS011;4871;52.004;5.924;2023-11-19T03:08:00;14.30;;;3.90;;
9665;SDS011;4871;52.004;5.924;2023-11-19T03:09:05;14.30;;;3.90;;
9665;SDS011;4871;52.004;5.924;2023-11-19T03:10:00;14.30;;;3.90;;
9665;SDS011;4871;52.004;5.924;2023-11-19T03:11:00;14.30;;;3.90;;
9665;SDS011;4871;52.004;5.924;2023-11-19T03:12:00;14.30;;;3.90;;
9665;SDS011;4871;52.004;5.924;2023-11-19T03:13:02;14.30;;;3.90;;
9665;SDS011;4871;52.004;5.924;2023-11-19T03:14:00;14.30;;;3.90;;
9665;SDS011;4871;52.004;5.924;2023-11-19T03:15:00;14.30;;;3.90;;
9665;SDS011;4871;52.004;5.924;2023-11-19T03:16:00;14.30;;;3.90;;
9665;SDS011;4871;52.004;5.924;2023-11-19T03:17:00;14.30;;;3.90;;
9665;SDS011;4871;52.004;5.924;2023-11-19T03:18:00;14.30;;;3.90;;
9665;SDS011;4871;52.004;5.924;2023-11-19T03:19:00;14.30;;;3.90;;
9665;SDS011;4871;52.004;5.924;2023-11-19T03:20:01;14.30;;;3.90;;
9665;SDS011;4871;52.004;5.924;2023-11-19T03:21:00;14.30;;;3.90;;
9665;SDS011;4871;52.004;5.924;2023-11-19T03:22:01;14.30;;;3.90;;
9665;SDS011;4871;52.004;5.924;2023-11-19T03:23:01;14.30;;;3.90;;
9665;SDS011;4871;52.004;5.924;2023-11-19T03:24:00;14.30;;;3.90;;
9665;SDS011;4871;52.004;5.924;2023-11-19T03:25:00;16.10;;;4.60;;
9665;SDS011;4871;52.004;5.924;2023-11-19T03:26:03;16.10;;;4.60;;
9665;SDS011;4871;52.004;5.924;2023-11-19T03:27:00;16.10;;;4.60;;
9665;SDS011;4871;52.004;5.924;2023-11-19T03:28:01;16.10;;;4.60;;
9665;SDS011;4871;52.004;5.924;2023-11-19T03:29:01;16.10;;;4.60;;
9665;SDS011;4871;52.004;5.924;2023-11-19T03:30:00;16.10;;;4.60;;
9665;SDS011;4871;52.004;5.924;2023-11-19T03:31:00;16.10;;;4.60;;
9665;SDS011;4871;52.004;5.924;2023-11-19T03:32:00;16.10;;;4.60;;
9665;SDS011;4871;52.004;5.924;2023-11-19T03:33:01;16.10;;;4.60;;
9665;SDS011;4871;52.004;5.924;2023-11-19T03:34:00;16.10;;;4.60;;
9665;SDS011;4871;52.004;5.924;2023-11-19T03:35:00;16.10;;;4.60;;
9665;SDS011;4871;52.004;5.924;2023-11-19T03:36:00;16.10;;;4.60;;
9665;SDS011;4871;52.004;5.924;2023-11-19T03:37:00;16.10;;;4.60;;
9665;SDS011;4871;52.004;5.924;2023-11-19T03:38:01;16.10;;;4.60;;
9665;SDS011;4871;52.004;5.924;2023-11-19T03:39:00;16.10;;;4.60;;
9665;SDS011;4871;52.004;5.924;2023-11-19T03:40:00;16.10;;;4.60;;
9665;SDS011;4871;52.004;5.924;2023-11-19T03:41:00;16.10;;;4.60;;
9665;SDS011;4871;52.004;5.924;2023-11-19T03:42:00;16.10;;;4.60;;
9665;SDS011;4871;52.004;5.924;2023-11-19T03:43:00;16.10;;;4.60;;
9665;SDS011;4871;52.004;5.924;2023-11-19T03:44:00;16.10;;;4.60;;
9665;SDS011;4871;52.004;5.924;2023-11-19T03:45:00;16.10;;;4.60;;
9665;SDS011;4871;52.004;5.924;2023-11-19T03:46:00;16.10;;;4.60;;
9665;SDS011;4871;52.004;5.924;2023-11-19T03:47:00;16.10;;;4.60;;
9665;SDS011;4871;52.004;5.924;2023-11-19T03:48:00;16.10;;;4.60;;
9665;SDS011;4871;52.004;5.924;2023-11-19T03:49:00;16.10;;;4.60;;
9665;SDS011;4871;52.004;5.924;2023-11-19T03:50:00;16.10;;;4.60;;
9665;SDS011;4871;52.004;5.924;2023-11-19T03:51:00;16.10;;;4.60;;
9665;SDS011;4871;52.004;5.924;2023-11-19T03:52:00;16.10;;;4.60;;
9665;SDS011;4871;52.004;5.924;2023-11-19T03:53:00;16.10;;;4.60;;
9665;SDS011;4871;52.004;5.924;2023-11-19T03:54:00;16.10;;;4.60;;
9665;SDS011;4871;52.004;5.924;2023-11-19T03:55:00;19.10;;;7.20;;
9665;SDS011;4871;52.004;5.924;2023-11-19T03:56:00;19.10;;;7.20;;
9665;SDS011;4871;52.004;5.924;2023-11-19T03:57:00;19.10;;;7.20;;
9665;SDS011;4871;52.004;5.924;2023-11-19T03:58:00;19.10;;;7.20;;
9665;SDS011;4871;52.004;5.924;2023-11-19T03:59:00;19.10;;;7.20;;
9665;SDS011;4871;52.004;5.924;2023-11-19T04:00:02;19.10;;;7.20;;
9665;SDS011;4871;52.004;5.924;2023-11-19T04:01:00;19.10;;;7.20;;
9665;SDS011;4871;52.004;5.924;2023-11-19T04:02:00;19.10;;;7.20;;
9665;SDS011;4871;52.004;5.924;2023-11-19T04:03:00;19.10;;;7.20;;
9665;SDS011;4871;52.004;5.924;2023-11-19T04:04:00;19.10;;;7.20;;
9665;SDS011;4871;52.004;5.924;2023-11-19T04:05:00;19.10;;;7.20;;
9665;SDS011;4871;52.004;5.924;2023-11-19T04:06:00;19.10;;;7.20;;
9665;SDS011;4871;52.004;5.924;2023-11-19T04:07:00;19.10;;;7.20;;
9665;SDS011;4871;52.004;5.924;2023-11-19T04:08:00;19.10;;;7.20;;
9665;SDS011;4871;52.004;5.924;2023-11-19T04:09:00;19.10;;;7.20;;
9665;SDS011;4871;52.004;5.924;2023-11-19T04:10:00;19.10;;;7.20;;
9665;SDS011;4871;52.004;5.924;2023-11-19T04:11:01;19.10;;;7.20;;
9665;SDS011;4871;52.004;5.924;2023-11-19T04:12:00;19.10;;;7.20;;
9665;SDS011;4871;52.004;5.924;2023-11-19T04:13:01;19.10;;;7.20;;
9665;SDS011;4871;52.004;5.924;2023-11-19T04:14:00;19.10;;;7.20;;
9665;SDS011;4871;52.004;5.924;2023-11-19T04:15:00;19.10;;;7.20;;
9665;SDS011;4871;52.004;5.924;2023-11-19T04:16:00;19.10;;;7.20;;
9665;SDS011;4871;52.004;5.924;2023-11-19T04:17:00;19.10;;;7.20;;
9665;SDS011;4871;52.004;5.924;2023-11-19T04:18:00;19.10;;;7.20;;
9665;SDS011;4871;52.004;5.924;2023-11-19T04:19:00;19.10;;;7.20;;
9665;SDS011;4871;52.004;5.924;2023-11-19T04:20:00;19.10;;;7.20;;
9665;SDS011;4871;52.004;5.924;2023-11-19T04:21:00;19.10;;;7.20;;
9665;SDS011;4871;52.004;5.924;2023-11-19T04:22:00;19.10;;;7.20;;
9665;SDS011;4871;52.004;5.924;2023-11-19T04:23:00;19.10;;;7.20;;
9665;SDS011;4871;52.004;5.924;2023-11-19T04:24:00;19.10;;;7.20;;
9665;SDS011;4871;52.004;5.924;2023-11-19T04:25:00;18.10;;;5.10;;
9665;SDS011;4871;52.004;5.924;2023-11-19T04:26:01;18.10;;;5.10;;
9665;SDS011;4871;52.004;5.924;2023-11-19T04:27:00;18.10;;;5.10;;
9665;SDS011;4871;52.004;5.924;2023-11-19T04:28:00;18.10;;;5.10;;
9665;SDS011;4871;52.004;5.924;2023-11-19T04:29:00;18.10;;;5.10;;
9665;SDS011;4871;52.004;5.924;2023-11-19T04:30:01;18.10;;;5.10;;
9665;SDS011;4871;52.004;5.924;2023-11-19T04:31:00;18.10;;;5.10;;
9665;SDS011;4871;52.004;5.924;2023-11-19T04:32:01;18.10;;;5.10;;
9665;SDS011;4871;52.004;5.924;2023-11-19T04:33:00;18.10;;;5.10;;
9665;SDS011;4871;52.004;5.924;2023-11-19T04:34:00;18.10;;;5.10;;
9665;SDS011;4871;52.004;5.924;2023-11-19T04:35:00;18.10;;;5.10;;
9665;SDS011;4871;52.004;5.924;2023-11-19T04:36:00;18.10;;;5.10;;
9665;SDS011;4871;52.004;5.924;2023-11-19T04:37:02;18.10;;;5.10;;
9665;SDS011;4871;52.004;5.924;2023-11-19T04:38:00;18.10;;;5.10;;
9665;SDS011;4871;52.004;5.924;2023-11-19T04:39:00;18.10;;;5.10;;
9665;SDS011;4871;52.004;5.924;2023-11-19T04:40:00;18.10;;;5.10;;
9665;SDS011;4871;52.004;5.924;2023-11-19T04:41:00;18.10;;;5.10;;
9665;SDS011;4871;52.004;5.924;2023-11-19T04:42:00;18.10;;;5.10;;
9665;SDS011;4871;52.004;5.924;2023-11-19T04:43:00;18.10;;;5.10;;
9665;SDS011;4871;52.004;5.924;2023-11-19T04:44:00;18.10;;;5.10;;
9665;SDS011;4871;52.004;5.924;2023-11-19T04:45:00;18.10;;;5.10;;
9665;SDS011;4871;52.004;5.924;2023-11-19T04:46:00;18.10;;;5.10;;
9665;SDS011;4871;52.004;5.924;2023-11-19T04:47:00;18.10;;;5.10;;
9665;SDS011;4871;52.004;5.924;2023-11-19T04:48:00;18.10;;;5.10;;
9665;SDS011;4871;52.004;5.924;2023-11-19T04:49:00;18.10;;;5.10;;
9665;SDS011;4871;52.004;5.924;2023-11-19T04:50:00;18.10;;;5.10;;
9665;SDS011;4871;52.004;5.924;2023-11-19T04:51:00;18.10;;;5.10;;
9665;SDS011;4871;52.004;5.924;2023-11-19T04:52:00;18.10;;;5.10;;
9665;SDS011;4871;52.004;5.924;2023-11-19T04:53:00;18.10;;;5.10;;
9665;SDS011;4871;52.004;5.924;2023-11-19T04:54:00;18.10;;;5.10;;
9665;SDS011;4871;52.004;5.924;2023-11-19T04:55:00;17.60;;;4.90;;
9665;SDS011;4871;52.004;5.924;2023-11-19T04:56:00;17.60;;;4.90;;
9665;SDS011;4871;52.004;5.924;2023-11-19T04:57:00;17.60;;;4.90;;
9665;SDS011;4871;52.004;5.924;2023-11-19T04:58:00;17.60;;;4.90;;
9665;SDS011;4871;52.004;5.924;2023-11-19T04:59:00;17.60;;;4.90;;
9665;SDS011;4871;52.004;5.924;2023-11-19T05:00:00;17.60;;;4.90;;
9665;SDS011;4871;52.004;5.924;2023-11-19T05:01:00;17.60;;;4.90;;
9665;SDS011;4871;52.004;5.924;2023-11-19T05:02:00;17.60;;;4.90;;
9665;SDS011;4871;52.004;5.924;2023-11-19T05:03:00;17.60;;;4.90;;
9665;SDS011;4871;52.004;5.924;2023-11-19T05:04:00;17.60;;;4.90;;
9665;SDS011;4871;52.004;5.924;2023-11-19T05:05:00;17.60;;;4.90;;
9665;SDS011;4871;52.004;5.924;2023-11-19T05:06:00;17.60;;;4.90;;
9665;SDS011;4871;52.004;5.924;2023-11-19T05:07:00;17.60;;;4.90;;
9665;SDS011;4871;52.004;5.924;2023-11-19T05:08:00;17.60;;;4.90;;
9665;SDS011;4871;52.004;5.924;2023-11-19T05:09:01;17.60;;;4.90;;
9665;SDS011;4871;52.004;5.924;2023-11-19T05:10:00;17.60;;;4.90;;
9665;SDS011;4871;52.004;5.924;2023-11-19T05:11:00;17.60;;;4.90;;
9665;SDS011;4871;52.004;5.924;2023-11-19T05:12:01;17.60;;;4.90;;
9665;SDS011;4871;52.004;5.924;2023-11-19T05:13:00;17.60;;;4.90;;
9665;SDS011;4871;52.004;5.924;2023-11-19T05:14:02;17.60;;;4.90;;
9665;SDS011;4871;52.004;5.924;2023-11-19T05:15:00;17.60;;;4.90;;
9665;SDS011;4871;52.004;5.924;2023-11-19T05:16:00;17.60;;;4.90;;
9665;SDS011;4871;52.004;5.924;2023-11-19T05:17:00;17.60;;;4.90;;
9665;SDS011;4871;52.004;5.924;2023-11-19T05:18:00;17.60;;;4.90;;
9665;SDS011;4871;52.004;5.924;2023-11-19T05:19:00;17.60;;;4.90;;
9665;SDS011;4871;52.004;5.924;2023-11-19T05:20:00;17.60;;;4.90;;
9665;SDS011;4871;52.004;5.924;2023-11-19T05:21:00;17.60;;;4.90;;
9665;SDS011;4871;52.004;5.924;2023-11-19T05:22:00;17.60;;;4.90;;
9665;SDS011;4871;52.004;5.924;2023-11-19T05:23:00;17.60;;;4.90;;
9665;SDS011;4871;52.004;5.924;2023-11-19T05:24:00;17.60;;;4.90;;
9665;SDS011;4871;52.004;5.924;2023-11-19T05:25:00;20.80;;;5.90;;
9665;SDS011;4871;52.004;5.924;2023-11-19T05:26:00;20.80;;;5.90;;
9665;SDS011;4871;52.004;5.924;2023-11-19T05:27:00;20.80;;;5.90;;
9665;SDS011;4871;52.004;5.924;2023-11-19T05:28:00;20.80;;;5.90;;
9665;SDS011;4871;52.004;5.924;2023-11-19T05:29:00;20.80;;;5.90;;
9665;SDS011;4871;52.004;5.924;2023-11-19T05:30:00;20.80;;;5.90;;
9665;SDS011;4871;52.004;5.924;2023-11-19T05:31:00;20.80;;;5.90;;
9665;SDS011;4871;52.004;5.924;2023-11-19T05:32:00;20.80;;;5.90;;
9665;SDS011;4871;52.004;5.924;2023-11-19T05:33:00;20.80;;;5.90;;
9665;SDS011;4871;52.004;5.924;2023-11-19T05:34:00;20.80;;;5.90;;
9665;SDS011;4871;52.004;5.924;2023-11-19T05:35:00;20.80;;;5.90;;
9665;SDS011;4871;52.004;5.924;2023-11-19T05:36:00;20.80;;;5.90;;
9665;SDS011;4871;52.004;5.924;2023-11-19T05:37:00;20.80;;;5.90;;
9665;SDS011;4871;52.004;5.924;2023-11-19T05:38:00;20.80;;;5.90;;
9665;SDS011;4871;52.004;5.924;2023-11-19T05:39:00;20.80;;;5.90;;
9665;SDS011;4871;52.004;5.924;2023-11-19T05:40:03;20.80;;;5.90;;
9665;SDS011;4871;52.004;5.924;2023-11-19T05:41:00;20.80;;;5.90;;
9665;SDS011;4871;52.004;5.924;2023-11-19T05:42:00;20.80;;;5.90;;
9665;SDS011;4871;52.004;5.924;2023-11-19T05:43:00;20.80;;;5.90;;
9665;SDS011;4871;52.004;5.924;2023-11-19T05:44:00;20.80;;;5.90;;
9665;SDS011;4871;52.004;5.924;2023-11-19T05:45:00;20.80;;;5.90;;
9665;SDS011;4871;52.004;5.924;2023-11-19T05:46:01;20.80;;;5.90;;
9665;SDS011;4871;52.004;5.924;2023-11-19T05:47:00;20.80;;;5.90;;
9665;SDS011;4871;52.004;5.924;2023-11-19T05:48:00;20.80;;;5.90;;
9665;SDS011;4871;52.004;5.924;2023-11-19T05:49:00;20.80;;;5.90;;
9665;SDS011;4871;52.004;5.924;2023-11-19T05:50:00;20.80;;;5.90;;
9665;SDS011;4871;52.004;5.924;2023-11-19T05:51:00;20.80;;;5.90;;
9665;SDS011;4871;52.004;5.924;2023-11-19T05:52:03;20.80;;;5.90;;
9665;SDS011;4871;52.004;5.924;2023-11-19T05:53:01;20.80;;;5.90;;
9665;SDS011;4871;52.004;5.924;2023-11-19T05:54:00;20.80;;;5.90;;
9665;SDS011;4871;52.004;5.924;2023-11-19T05:55:02;20.10;;;4.60;;
9665;SDS011;4871;52.004;5.924;2023-11-19T05:56:04;20.10;;;4.60;;
9665;SDS011;4871;52.004;5.924;2023-11-19T05:57:00;20.10;;;4.60;;
9665;SDS011;4871;52.004;5.924;2023-11-19T05:58:00;20.10;;;4.60;;
9665;SDS011;4871;52.004;5.924;2023-11-19T05:59:01;20.10;;;4.60;;
9665;SDS011;4871;52.004;5.924;2023-11-19T06:00:00;20.10;;;4.60;;
9665;SDS011;4871;52.004;5.924;2023-11-19T06:01:01;20.10;;;4.60;;
9665;SDS011;4871;52.004;5.924;2023-11-19T06:02:00;20.10;;;4.60;;
9665;SDS011;4871;52.004;5.924;2023-11-19T06:03:00;20.10;;;4.60;;
9665;SDS011;4871;52.004;5.924;2023-11-19T06:04:00;20.10;;;4.60;;
9665;SDS011;4871;52.004;5.924;2023-11-19T06:05:00;20.10;;;4.60;;
9665;SDS011;4871;52.004;5.924;2023-11-19T06:06:00;20.10;;;4.60;;
9665;SDS011;4871;52.004;5.924;2023-11-19T06:07:00;20.10;;;4.60;;
9665;SDS011;4871;52.004;5.924;2023-11-19T06:08:00;20.10;;;4.60;;
9665;SDS011;4871;52.004;5.924;2023-11-19T06:09:03;20.10;;;4.60;;